»·PEaware :: N45XS KLAX-KSNA

N45XS :: KLAX-KSNA

FLIGHT INFORMATION

Flight Status: Arrived
Operator: Privately registered:
United States
More flights under this callsign
Pilot: Anonymous 16260 (16260)
Aircraft: ECLIPSE 500
(EA50)
More flights by this aircraft type
Origin: KLAX Los Angeles Intl
United States
Destination: KSNA John Wayne-Orange Co
United States
More flights between these airports :: More routes between these airports
Route: +LAXX1 SLI
File this flight plan on PilotEdge
Remarks: TEC route LAXP4 / please speak english slow. / I'm performing I6 rating.
Altitude:
(Current/Filed)
5,000ft
Speed:
(Current/Filed)
285kts
Departed: 18-Apr-19 03:30 PM
Arrived: 18-Apr-19 03:59 PM
Distance/Time
Traveled:
31nm/0:29
Distance/Time
To Go:
Arrived

Flight Plot

Page will automatically refresh every two minutes.


Map Options




Map Legend


Flown Route
Filed Route
Departure Airport
Arrival Airport
Navaid (VOR, NDB)
Fix

Horizontal Profiles

Position Reports

Time Latitude Longitude Heading Altitude Ground
Speed
18-Apr-19 15:16 33.932774 -118.397554 334 128ft 0kts
18-Apr-19 15:17 33.932774 -118.397554 334 128ft 0kts
18-Apr-19 15:18 33.932774 -118.397554 334 128ft 0kts
18-Apr-19 15:19 33.932774 -118.397554 334 128ft 0kts
18-Apr-19 15:20 33.932774 -118.397554 334 128ft 0kts
18-Apr-19 15:21 33.932826 -118.397585 333 128ft 3kts
18-Apr-19 15:22 33.934499 -118.398031 62 128ft 5kts
18-Apr-19 15:23 33.934782 -118.395898 83 128ft 13kts
18-Apr-19 15:24 33.935398 -118.389769 83 128ft 17kts
18-Apr-19 15:25 33.935902 -118.384960 83 128ft 14kts
18-Apr-19 15:26 33.936415 -118.382781 14 128ft 0kts
18-Apr-19 15:27 33.936415 -118.382781 14 128ft 0kts
18-Apr-19 15:28 33.937328 -118.383070 266 128ft 8kts
18-Apr-19 15:29 33.934443 -118.415472 263 733ft 141kts
18-Apr-19 15:30 33.921108 -118.458502 233 1513ft 143kts
18-Apr-19 15:31 33.889735 -118.470925 130 2326ft 157kts
18-Apr-19 15:32 33.875120 -118.420333 109 3137ft 160kts
18-Apr-19 15:33 33.862661 -118.368921 110 3939ft 160kts
18-Apr-19 15:34 33.849700 -118.317760 110 4739ft 161kts
18-Apr-19 15:35 33.835767 -118.262441 110 4981ft 177kts
18-Apr-19 15:36 33.821614 -118.206414 104 4988ft 173kts
18-Apr-19 15:37 33.807614 -118.150974 103 4990ft 173kts
18-Apr-19 15:38 33.793588 -118.095505 104 4990ft 173kts
18-Apr-19 15:39 33.781069 -118.040161 79 4983ft 169kts
18-Apr-19 15:40 33.807430 -117.992476 65 4981ft 175kts
18-Apr-19 15:41 33.828629 -117.939950 65 4982ft 175kts
18-Apr-19 15:42 33.849724 -117.887298 65 4979ft 166kts
18-Apr-19 15:43 33.869744 -117.837155 65 4982ft 166kts
18-Apr-19 15:44 33.889726 -117.786953 65 4982ft 166kts
18-Apr-19 15:45 33.909660 -117.736761 66 4990ft 171kts
18-Apr-19 15:46 33.935740 -117.690357 27 4996ft 173kts
18-Apr-19 15:47 33.978302 -117.664613 7 4990ft 171kts
18-Apr-19 15:48 33.985762 -117.698753 190 4997ft 152kts
18-Apr-19 15:49 33.943695 -117.703336 185 4991ft 151kts
18-Apr-19 15:50 33.905368 -117.722838 207 4961ft 152kts
18-Apr-19 15:51 33.870649 -117.744848 209 4306ft 138kts
18-Apr-19 15:52 33.836036 -117.766939 208 3549ft 141kts
18-Apr-19 15:53 33.801565 -117.788893 207 2771ft 139kts
18-Apr-19 15:54 33.767385 -117.810619 207 1999ft 138kts
18-Apr-19 15:55 33.733607 -117.832086 208 1243ft 137kts
18-Apr-19 15:56 33.702808 -117.851634 208 554ft 94kts
18-Apr-19 15:57 33.680644 -117.865710 209 76ft 88kts
18-Apr-19 15:58 33.670993 -117.871786 205 59ft 5kts
18-Apr-19 15:59 33.669197 -117.871672 126 59ft 6kts
18-Apr-19 16:00 33.669249 -117.870116 202 59ft 5kts
18-Apr-19 16:01 33.668837 -117.870353 218 59ft 0kts
18-Apr-19 16:02 33.668837 -117.870353 218 59ft 0kts
18-Apr-19 16:03 33.668837 -117.870353 218 59ft 0kts
18-Apr-19 16:04 33.668837 -117.870353 218 59ft 0kts
18-Apr-19 16:05 33.668837 -117.870353 218 59ft 0kts
18-Apr-19 16:06 33.668837 -117.870353 218 59ft 0kts
18-Apr-19 16:07 33.668837 -117.870353 218 59ft 0kts
18-Apr-19 16:08 33.668837 -117.870353 218 59ft 0kts
18-Apr-19 16:09 33.668837 -117.870353 218 59ft 0kts
18-Apr-19 16:10 33.668837 -117.870353 218 59ft 0kts
18-Apr-19 16:11 33.668837 -117.870353 218 59ft 0kts
18-Apr-19 16:12 33.668837 -117.870353 218 59ft 0kts

Navigation Log

Ident Type
Flight plan parsing failed, navigation log unavailable